Time;durP1;ratioP1;P1;durP2;ratioP2;P2;SDS_P1;SDS_P2;PMS_P1;PMS_P2;Temp;Humidity;BMP_temperature;BMP_pressure;BME280_temperature;BME280_humidity;BME280_pressure;Samples;Min_cycle;Max_cycle;Signal;HPM_P1;HPM_P2
2022/01/09 00:00:44;;;;;;;17.45;2.55;;;;;;;;;;5131741;27;20018;-74
2022/01/09 00:03:11;;;;;;;22.58;4.50;;;;;;;;;;5132906;27;20489;-73
2022/01/09 00:05:37;;;;;;;19.95;2.95;;;;;;;;;;5133118;27;20034;-74
2022/01/09 00:08:04;;;;;;;18.52;3.30;;;;;;;;;;5131039;27;20031;-73
2022/01/09 00:10:32;;;;;;;18.20;3.80;;;;;;;;;;5131300;27;20019;-73
2022/01/09 00:12:59;;;;;;;17.15;2.88;;;;;;;;;;5131355;27;20015;-74
2022/01/09 00:15:25;;;;;;;26.65;6.03;;;;;;;;;;5131357;27;20031;-74
2022/01/09 00:17:51;;;;;;;24.13;4.85;;;;;;;;;;5134428;27;20035;-74
2022/01/09 00:20:18;;;;;;;28.40;4.15;;;;;;;;;;5132507;27;20022;-74
2022/01/09 00:22:47;;;;;;;34.20;4.55;;;;;;;;;;5131110;27;20023;-74
2022/01/09 00:25:14;;;;;;;29.00;5.82;;;;;;;;;;5112493;27;20031;-74
2022/01/09 00:27:41;;;;;;;25.60;3.55;;;;;;;;;;5131123;27;20020;-74
2022/01/09 00:30:09;;;;;;;27.02;4.15;;;;;;;;;;5132906;27;20027;-74
2022/01/09 00:32:35;;;;;;;34.50;4.70;;;;;;;;;;5132498;27;20027;-74
2022/01/09 00:35:03;;;;;;;32.65;3.80;;;;;;;;;;5129997;27;20015;-74
2022/01/09 00:37:29;;;;;;;29.55;3.90;;;;;;;;;;5115643;27;20025;-74
2022/01/09 00:39:56;;;;;;;34.47;4.22;;;;;;;;;;5130452;27;20029;-73
2022/01/09 00:42:22;;;;;;;28.95;4.32;;;;;;;;;;5130850;27;20015;-74
2022/01/09 00:44:48;;;;;;;41.45;5.45;;;;;;;;;;5129992;27;20401;-73
2022/01/09 00:47:15;;;;;;;35.42;4.20;;;;;;;;;;5130346;27;20039;-74
2022/01/09 00:49:42;;;;;;;35.95;5.28;;;;;;;;;;5130228;27;20022;-73
2022/01/09 00:52:08;;;;;;;37.42;4.13;;;;;;;;;;5130168;27;20038;-74
2022/01/09 00:54:35;;;;;;;30.48;4.30;;;;;;;;;;5130471;27;20014;-74
2022/01/09 00:57:01;;;;;;;28.48;4.90;;;;;;;;;;5133100;27;20023;-74
2022/01/09 00:59:28;;;;;;;26.08;4.38;;;;;;;;;;5131468;27;20535;-73
2022/01/09 01:01:54;;;;;;;28.13;3.92;;;;;;;;;;5129592;27;20019;-74
2022/01/09 01:04:20;;;;;;;20.08;2.80;;;;;;;;;;5111645;27;20023;-73
2022/01/09 01:06:49;;;;;;;32.75;4.35;;;;;;;;;;5130473;27;20003;-73
2022/01/09 01:09:16;;;;;;;23.15;4.18;;;;;;;;;;5131106;27;20470;-73
2022/01/09 01:11:42;;;;;;;27.95;4.43;;;;;;;;;;5133158;27;20423;-74
2022/01/09 01:14:08;;;;;;;23.63;3.80;;;;;;;;;;5129604;27;20414;-74
2022/01/09 01:16:35;;;;;;;24.13;3.40;;;;;;;;;;5131147;27;20015;-74
2022/01/09 01:19:02;;;;;;;15.80;2.75;;;;;;;;;;5129619;27;20388;-74
2022/01/09 01:21:29;;;;;;;9.10;1.80;;;;;;;;;;5129808;27;20057;-74
2022/01/09 01:23:56;;;;;;;8.68;1.58;;;;;;;;;;5132833;27;20504;-74
2022/01/09 01:26:22;;;;;;;11.25;1.52;;;;;;;;;;5130732;27;20027;-74
2022/01/09 01:28:48;;;;;;;12.27;2.35;;;;;;;;;;5129849;27;20027;-74
2022/01/09 01:31:15;;;;;;;11.65;2.03;;;;;;;;;;5129656;27;20506;-74
2022/01/09 01:33:42;;;;;;;9.77;1.55;;;;;;;;;;5129854;27;20012;-74
2022/01/09 01:36:08;;;;;;;8.13;1.95;;;;;;;;;;5131529;27;20023;-73
2022/01/09 01:38:35;;;;;;;11.00;2.75;;;;;;;;;;5131507;27;20030;-74
2022/01/09 01:41:01;;;;;;;9.77;2.40;;;;;;;;;;5111121;27;20019;-74
2022/01/09 01:43:28;;;;;;;8.23;1.75;;;;;;;;;;5129195;27;20019;-74
2022/01/09 01:45:54;;;;;;;12.38;2.42;;;;;;;;;;5129586;27;20031;-73
2022/01/09 01:48:21;;;;;;;13.95;2.63;;;;;;;;;;5113216;27;20420;-74
2022/01/09 01:50:48;;;;;;;9.90;2.03;;;;;;;;;;5133220;27;20011;-74
2022/01/09 01:53:18;;;;;;;10.07;2.55;;;;;;;;;;5111086;27;20023;-73
2022/01/09 01:55:51;;;;;;;14.82;2.03;;;;;;;;;;5130959;27;20355;-74
2022/01/09 01:58:17;;;;;;;15.57;2.10;;;;;;;;;;5128951;27;20027;-74
2022/01/09 02:00:44;;;;;;;23.45;2.20;;;;;;;;;;5129437;27;20019;-73
2022/01/09 02:03:10;;;;;;;14.25;2.55;;;;;;;;;;5130534;27;20029;-74
2022/01/09 02:05:37;;;;;;;14.23;2.63;;;;;;;;;;5113110;27;20027;-74
2022/01/09 02:08:04;;;;;;;19.00;2.97;;;;;;;;;;5129301;27;20023;-74
2022/01/09 02:10:30;;;;;;;13.88;2.42;;;;;;;;;;5128964;27;20078;-74
2022/01/09 02:12:57;;;;;;;14.30;2.20;;;;;;;;;;5128933;27;20011;-74
2022/01/09 02:15:33;;;;;;;17.70;2.80;;;;;;;;;;5129234;27;20042;-74
2022/01/09 02:18:07;;;;;;;14.43;2.50;;;;;;;;;;5131011;27;20116;-74
2022/01/09 02:20:34;;;;;;;13.88;2.40;;;;;;;;;;5130478;28;20019;-73
2022/01/09 02:23:00;;;;;;;14.65;2.20;;;;;;;;;;5128600;28;20478;-73
2022/01/09 02:25:27;;;;;;;19.65;2.83;;;;;;;;;;5128853;28;20015;-74
2022/01/09 02:27:55;;;;;;;20.33;1.98;;;;;;;;;;5129234;28;20019;-74
2022/01/09 02:30:22;;;;;;;19.40;3.05;;;;;;;;;;5128796;28;20386;-73
2022/01/09 02:32:48;;;;;;;15.57;2.15;;;;;;;;;;5132281;28;20015;-73
2022/01/09 02:35:14;;;;;;;20.92;3.30;;;;;;;;;;5130019;28;20023;-73
2022/01/09 02:37:41;;;;;;;15.50;2.30;;;;;;;;;;5128909;28;20019;-74
2022/01/09 02:40:08;;;;;;;12.15;2.15;;;;;;;;;;5128654;28;20382;-74
2022/01/09 02:42:35;;;;;;;16.52;2.67;;;;;;;;;;5128686;28;20016;-74
2022/01/09 02:45:01;;;;;;;16.92;2.70;;;;;;;;;;5131515;28;20023;-73
2022/01/09 02:47:31;;;;;;;15.00;2.60;;;;;;;;;;5129759;28;20031;-73
2022/01/09 02:50:06;;;;;;;17.20;3.20;;;;;;;;;;5128732;28;20470;-74
2022/01/09 02:52:35;;;;;;;15.13;2.38;;;;;;;;;;5128713;28;20027;-74
2022/01/09 02:57:32;;;;;;;11.45;1.95;;;;;;;;;;5128568;28;20012;-74
2022/01/09 02:59:59;;;;;;;11.30;2.50;;;;;;;;;;5131030;28;20027;-74
2022/01/09 03:02:25;;;;;;;12.32;2.50;;;;;;;;;;5129717;28;20028;-74
2022/01/09 03:04:52;;;;;;;18.25;3.15;;;;;;;;;;5128602;28;20488;-73
2022/01/09 03:07:18;;;;;;;13.10;2.78;;;;;;;;;;5128775;28;20019;-74
2022/01/09 03:09:45;;;;;;;14.10;2.42;;;;;;;;;;5128443;28;20015;-74
2022/01/09 03:12:12;;;;;;;13.95;2.65;;;;;;;;;;5129599;28;20477;-74
2022/01/09 03:14:38;;;;;;;18.70;2.67;;;;;;;;;;5131811;28;20030;-73
2022/01/09 03:17:04;;;;;;;19.25;3.17;;;;;;;;;;5128336;28;20477;-74
2022/01/09 03:19:31;;;;;;;16.15;2.58;;;;;;;;;;5128321;28;20405;-73
2022/01/09 03:21:57;;;;;;;20.33;3.05;;;;;;;;;;5128275;28;20397;-73
2022/01/09 03:24:24;;;;;;;18.75;2.47;;;;;;;;;;5130101;27;20028;-73
2022/01/09 03:26:50;;;;;;;18.35;2.45;;;;;;;;;;5136163;27;20023;-74
2022/01/09 03:29:16;;;;;;;17.00;2.88;;;;;;;;;;5132147;27;20023;-74
2022/01/09 03:31:43;;;;;;;13.73;2.50;;;;;;;;;;5132254;27;20064;-73
2022/01/09 03:34:09;;;;;;;21.25;3.05;;;;;;;;;;5132513;27;20041;-74
2022/01/09 03:36:36;;;;;;;20.35;3.03;;;;;;;;;;5132280;27;20016;-74
2022/01/09 03:39:02;;;;;;;24.23;3.88;;;;;;;;;;5134471;27;20398;-73
2022/01/09 03:41:28;;;;;;;23.05;3.63;;;;;;;;;;5133210;27;20043;-73
2022/01/09 03:43:55;;;;;;;22.70;3.15;;;;;;;;;;5131454;27;20063;-73
2022/01/09 03:46:21;;;;;;;13.80;2.67;;;;;;;;;;5131357;27;20437;-73
2022/01/09 03:48:48;;;;;;;16.38;2.40;;;;;;;;;;5131657;27;20031;-74
2022/01/09 03:51:14;;;;;;;22.75;3.25;;;;;;;;;;5133229;27;20033;-74
2022/01/09 03:53:41;;;;;;;20.23;3.42;;;;;;;;;;5135370;27;20033;-73
2022/01/09 03:56:08;;;;;;;28.63;3.53;;;;;;;;;;5131343;27;20381;-73
2022/01/09 03:58:36;;;;;;;23.33;2.92;;;;;;;;;;5130604;27;20035;-73
2022/01/09 04:01:06;;;;;;;17.73;2.92;;;;;;;;;;5131075;27;20019;-74
2022/01/09 04:03:33;;;;;;;19.52;3.38;;;;;;;;;;5131916;27;20027;-74
2022/01/09 04:06:01;;;;;;;24.58;3.25;;;;;;;;;;5133581;27;20490;-74
2022/01/09 04:08:28;;;;;;;15.68;2.72;;;;;;;;;;5132836;27;20041;-73
2022/01/09 04:10:55;;;;;;;19.15;2.80;;;;;;;;;;5130813;27;20038;-73
2022/01/09 04:13:21;;;;;;;28.20;3.47;;;;;;;;;;5130710;27;20030;-74
2022/01/09 04:15:49;;;;;;;16.80;3.47;;;;;;;;;;5131250;27;20041;-74
2022/01/09 04:18:19;;;;;;;15.25;2.00;;;;;;;;;;5131911;27;20067;-73
2022/01/09 04:20:46;;;;;;;15.25;2.70;;;;;;;;;;5134569;27;20450;-74
2022/01/09 04:23:13;;;;;;;17.05;2.40;;;;;;;;;;5130750;27;20026;-73
2022/01/09 04:25:43;;;;;;;21.90;2.95;;;;;;;;;;5130947;27;20033;-74
2022/01/09 04:28:10;;;;;;;22.35;2.58;;;;;;;;;;5130526;27;20034;-72
2022/01/09 04:30:37;;;;;;;22.63;3.05;;;;;;;;;;5132127;27;20020;-73
2022/01/09 04:33:03;;;;;;;17.20;2.40;;;;;;;;;;5133247;27;20039;-73
2022/01/09 04:35:30;;;;;;;23.98;3.17;;;;;;;;;;5131067;27;20019;-73
2022/01/09 04:37:56;;;;;;;18.60;2.78;;;;;;;;;;5130245;27;20038;-73
2022/01/09 04:40:23;;;;;;;20.67;2.97;;;;;;;;;;5130616;27;20020;-73
2022/01/09 04:42:59;;;;;;;15.63;2.28;;;;;;;;;;5130289;27;20030;-73
2022/01/09 04:45:27;;;;;;;18.17;2.58;;;;;;;;;;5115669;27;20030;-74
2022/01/09 04:47:55;;;;;;;22.13;3.00;;;;;;;;;;5134002;27;20050;-74
2022/01/09 04:50:27;;;;;;;22.63;3.08;;;;;;;;;;5131266;27;20027;-74
2022/01/09 04:52:59;;;;;;;18.30;2.83;;;;;;;;;;5130350;27;20026;-73
2022/01/09 04:55:25;;;;;;;25.55;3.38;;;;;;;;;;5130431;27;20022;-74
2022/01/09 04:57:52;;;;;;;25.48;2.80;;;;;;;;;;5130298;27;20020;-73
2022/01/09 05:00:18;;;;;;;21.25;2.90;;;;;;;;;;5130891;27;20027;-73
2022/01/09 05:02:45;;;;;;;27.58;4.00;;;;;;;;;;5133513;27;20500;-73
2022/01/09 05:05:11;;;;;;;21.13;3.47;;;;;;;;;;5129986;27;20015;-74
2022/01/09 05:07:38;;;;;;;19.85;3.30;;;;;;;;;;5129788;27;20019;-73
2022/01/09 05:10:06;;;;;;;22.98;3.03;;;;;;;;;;5131066;27;20384;-73
2022/01/09 05:12:32;;;;;;;22.58;3.63;;;;;;;;;;5130022;27;20015;-73
2022/01/09 05:14:59;;;;;;;21.13;3.28;;;;;;;;;;5132523;27;20031;-73
2022/01/09 05:17:25;;;;;;;29.70;3.95;;;;;;;;;;5131158;27;20023;-73
2022/01/09 05:19:57;;;;;;;22.15;3.95;;;;;;;;;;5114611;27;20035;-73
2022/01/09 05:22:24;;;;;;;16.98;3.30;;;;;;;;;;5129848;27;20011;-73
2022/01/09 05:24:51;;;;;;;16.15;2.78;;;;;;;;;;5129802;27;20018;-74
2022/01/09 05:27:18;;;;;;;20.73;3.45;;;;;;;;;;5130698;27;20024;-73
2022/01/09 05:29:44;;;;;;;24.50;2.80;;;;;;;;;;5132895;27;20023;-73
2022/01/09 05:32:11;;;;;;;20.63;3.33;;;;;;;;;;5129482;27;20026;-73
2022/01/09 05:34:37;;;;;;;27.63;3.50;;;;;;;;;;5129611;27;20029;-73
2022/01/09 05:37:04;;;;;;;11.82;2.10;;;;;;;;;;5129428;27;20019;-73
2022/01/09 05:39:32;;;;;;;26.77;3.70;;;;;;;;;;5129453;27;20053;-73
2022/01/09 05:41:59;;;;;;;15.35;2.65;;;;;;;;;;5131985;27;20019;-73
2022/01/09 05:44:25;;;;;;;21.48;2.90;;;;;;;;;;5132250;27;20366;-74
2022/01/09 05:46:52;;;;;;;21.63;3.33;;;;;;;;;;5128636;27;20500;-73
2022/01/09 05:49:18;;;;;;;17.38;2.78;;;;;;;;;;5130787;27;20020;-73
2022/01/09 05:51:45;;;;;;;14.60;2.58;;;;;;;;;;5129666;27;20012;-74
2022/01/09 05:54:11;;;;;;;18.98;2.92;;;;;;;;;;5130847;27;20023;-73
2022/01/09 05:56:37;;;;;;;16.30;2.70;;;;;;;;;;5131422;27;20024;-74
2022/01/09 05:59:04;;;;;;;16.35;2.47;;;;;;;;;;5129240;27;20037;-73
2022/01/09 06:01:30;;;;;;;19.02;3.53;;;;;;;;;;5129342;27;20025;-73
2022/01/09 06:03:57;;;;;;;18.50;3.20;;;;;;;;;;5113666;27;20019;-73
2022/01/09 06:06:23;;;;;;;19.55;2.33;;;;;;;;;;5129257;27;20401;-73
2022/01/09 06:08:49;;;;;;;18.70;2.42;;;;;;;;;;5132418;27;20042;-73
2022/01/09 06:11:16;;;;;;;22.08;2.67;;;;;;;;;;5129028;27;20023;-73
2022/01/09 06:13:42;;;;;;;22.65;3.25;;;;;;;;;;5129210;27;20431;-73
2022/01/09 06:16:09;;;;;;;17.38;2.60;;;;;;;;;;5129043;27;20433;-73
2022/01/09 06:18:35;;;;;;;15.50;2.30;;;;;;;;;;5129217;27;20019;-74
2022/01/09 06:21:01;;;;;;;19.52;3.10;;;;;;;;;;5131872;27;20015;-73
2022/01/09 06:23:28;;;;;;;18.55;2.58;;;;;;;;;;5130127;28;20053;-73
2022/01/09 06:25:54;;;;;;;13.25;3.05;;;;;;;;;;5129031;28;20048;-73
2022/01/09 06:28:21;;;;;;;17.13;2.55;;;;;;;;;;5130025;28;20470;-73
2022/01/09 06:30:48;;;;;;;18.02;2.85;;;;;;;;;;5111043;28;20015;-73
2022/01/09 06:33:14;;;;;;;19.42;2.83;;;;;;;;;;5130131;28;20378;-74
2022/01/09 06:35:41;;;;;;;13.20;2.53;;;;;;;;;;5131591;28;20026;-73
2022/01/09 06:38:08;;;;;;;16.80;2.55;;;;;;;;;;5128414;28;20075;-73
2022/01/09 06:40:35;;;;;;;16.48;2.08;;;;;;;;;;5128553;28;20026;-74
2022/01/09 06:43:01;;;;;;;13.05;2.55;;;;;;;;;;5128844;28;20023;-73
2022/01/09 06:45:28;;;;;;;15.02;2.90;;;;;;;;;;5129118;28;20528;-73
2022/01/09 06:47:55;;;;;;;20.75;2.78;;;;;;;;;;5131669;28;20039;-74
2022/01/09 06:50:23;;;;;;;14.65;2.72;;;;;;;;;;5114053;28;20028;-73
2022/01/09 06:52:49;;;;;;;13.60;2.53;;;;;;;;;;5112468;28;20432;-74
2022/01/09 06:55:15;;;;;;;13.85;2.10;;;;;;;;;;5112898;28;20036;-74
2022/01/09 06:57:42;;;;;;;9.38;1.65;;;;;;;;;;5111365;28;20022;-73
2022/01/09 07:00:09;;;;;;;10.68;1.88;;;;;;;;;;5096040;28;20031;-73
2022/01/09 07:02:36;;;;;;;9.15;1.77;;;;;;;;;;5118811;27;20087;-74
2022/01/09 07:05:03;;;;;;;9.95;2.03;;;;;;;;;;5119131;27;20022;-73
2022/01/09 07:07:29;;;;;;;9.50;1.65;;;;;;;;;;5118148;27;20034;-73
2022/01/09 07:09:56;;;;;;;12.45;1.80;;;;;;;;;;5116808;27;20019;-74
2022/01/09 07:12:22;;;;;;;8.15;2.03;;;;;;;;;;5112401;28;20012;-74
2022/01/09 07:14:48;;;;;;;12.50;2.58;;;;;;;;;;5120211;27;20034;-73
2022/01/09 07:17:15;;;;;;;12.93;1.80;;;;;;;;;;5116520;27;20018;-73
2022/01/09 07:19:41;;;;;;;10.45;2.08;;;;;;;;;;5119521;27;20027;-74
2022/01/09 07:22:08;;;;;;;10.27;1.58;;;;;;;;;;5126048;27;20019;-73
2022/01/09 07:24:34;;;;;;;10.07;2.20;;;;;;;;;;5113626;27;20016;-73
2022/01/09 07:27:01;;;;;;;10.32;1.80;;;;;;;;;;5117067;27;20019;-73
2022/01/09 07:29:27;;;;;;;8.48;2.20;;;;;;;;;;5117644;27;20016;-73
2022/01/09 07:31:54;;;;;;;12.23;2.85;;;;;;;;;;5116524;27;20011;-73
2022/01/09 07:34:21;;;;;;;29.50;12.00;;;;;;;;;;5116279;27;20020;-73
2022/01/09 07:36:47;;;;;;;12.15;4.95;;;;;;;;;;5115087;27;20023;-74
2022/01/09 07:39:14;;;;;;;22.65;8.77;;;;;;;;;;5113723;27;20058;-73
2022/01/09 07:41:41;;;;;;;13.70;5.10;;;;;;;;;;5118449;27;20400;-73
2022/01/09 07:44:08;;;;;;;20.92;7.25;;;;;;;;;;5116218;27;20423;-73
2022/01/09 07:46:34;;;;;;;20.15;6.22;;;;;;;;;;5117099;27;20020;-73
2022/01/09 07:49:01;;;;;;;10.23;3.97;;;;;;;;;;5111415;28;20027;-74
2022/01/09 07:51:27;;;;;;;7.88;2.83;;;;;;;;;;5092471;28;20506;-74
2022/01/09 07:53:54;;;;;;;10.07;2.05;;;;;;;;;;5114293;28;20468;-73
2022/01/09 07:56:21;;;;;;;17.52;6.18;;;;;;;;;;5111390;28;20023;-73
2022/01/09 07:58:47;;;;;;;12.40;4.80;;;;;;;;;;5110806;28;20027;-73
2022/01/09 08:01:14;;;;;;;15.20;4.32;;;;;;;;;;5111079;28;20046;-73
2022/01/09 08:03:40;;;;;;;14.35;3.85;;;;;;;;;;5111141;28;20034;-73
2022/01/09 08:06:07;;;;;;;13.07;4.55;;;;;;;;;;5113222;28;20047;-73
2022/01/09 08:08:33;;;;;;;13.18;5.93;;;;;;;;;;5112378;28;20015;-74
2022/01/09 08:10:59;;;;;;;17.13;5.88;;;;;;;;;;5110918;28;20023;-74
2022/01/09 08:13:26;;;;;;;27.52;14.82;;;;;;;;;;5111273;28;20016;-74
2022/01/09 08:15:52;;;;;;;18.00;8.45;;;;;;;;;;5110998;28;20020;-73
2022/01/09 08:18:18;;;;;;;7.65;3.42;;;;;;;;;;5093141;28;20043;-73
2022/01/09 08:20:45;;;;;;;9.80;5.22;;;;;;;;;;5113344;28;20391;-74
2022/01/09 08:23:11;;;;;;;8.35;3.28;;;;;;;;;;5110597;28;20031;-73
2022/01/09 08:25:38;;;;;;;11.35;3.72;;;;;;;;;;5112198;28;20523;-73
2022/01/09 08:28:04;;;;;;;14.27;4.75;;;;;;;;;;5110541;28;20477;-73
2022/01/09 08:30:31;;;;;;;9.00;3.97;;;;;;;;;;5111200;28;20020;-74
2022/01/09 08:32:57;;;;;;;9.20;3.55;;;;;;;;;;5114014;28;20034;-73
2022/01/09 08:35:23;;;;;;;12.00;4.38;;;;;;;;;;5111384;28;20023;-74
2022/01/09 08:37:51;;;;;;;14.85;5.40;;;;;;;;;;5110448;28;20383;-73
2022/01/09 08:40:21;;;;;;;13.43;5.30;;;;;;;;;;5110795;28;20032;-74
2022/01/09 08:42:48;;;;;;;16.70;4.90;;;;;;;;;;5110724;28;20404;-73
2022/01/09 08:45:15;;;;;;;10.27;4.75;;;;;;;;;;5111929;28;20069;-73
2022/01/09 08:47:43;;;;;;;14.20;4.90;;;;;;;;;;5124127;27;20045;-73
2022/01/09 08:50:10;;;;;;;9.80;4.85;;;;;;;;;;5116126;27;20370;-73
2022/01/09 08:52:36;;;;;;;12.48;4.45;;;;;;;;;;5114974;27;20023;-73
2022/01/09 08:55:04;;;;;;;13.15;4.63;;;;;;;;;;5115196;27;20026;-74
2022/01/09 08:57:30;;;;;;;12.93;4.68;;;;;;;;;;5111214;27;20031;-74
2022/01/09 08:59:57;;;;;;;9.98;3.35;;;;;;;;;;5116564;27;20058;-73
2022/01/09 09:02:23;;;;;;;10.77;3.53;;;;;;;;;;5115435;27;20034;-74
2022/01/09 09:04:49;;;;;;;13.15;4.25;;;;;;;;;;5115909;27;20042;-73
2022/01/09 09:07:18;;;;;;;16.45;5.15;;;;;;;;;;5114667;27;20539;-74
2022/01/09 09:09:46;;;;;;;14.75;4.35;;;;;;;;;;5113371;27;20039;-73
2022/01/09 09:12:12;;;;;;;15.40;4.53;;;;;;;;;;5113356;27;20414;-73
2022/01/09 09:14:38;;;;;;;14.90;4.03;;;;;;;;;;5116715;27;20028;-73
2022/01/09 09:17:05;;;;;;;12.82;3.70;;;;;;;;;;5114050;27;20012;-74
2022/01/09 09:19:32;;;;;;;10.70;4.32;;;;;;;;;;5114279;27;20039;-73
2022/01/09 09:21:58;;;;;;;31.45;10.18;;;;;;;;;;5113685;27;20495;-73
2022/01/09 09:24:24;;;;;;;21.92;7.53;;;;;;;;;;5109947;28;20486;-73
2022/01/09 09:26:51;;;;;;;12.40;5.35;;;;;;;;;;5117637;27;20023;-74
2022/01/09 09:29:18;;;;;;;11.30;4.53;;;;;;;;;;5113926;27;20554;-73
2022/01/09 09:31:44;;;;;;;13.07;3.40;;;;;;;;;;5113808;27;20024;-74
2022/01/09 09:34:11;;;;;;;9.77;3.10;;;;;;;;;;5114254;27;20034;-73
2022/01/09 09:36:37;;;;;;;16.23;6.50;;;;;;;;;;5111609;27;20015;-73
2022/01/09 09:39:05;;;;;;;15.43;5.70;;;;;;;;;;5114627;27;20451;-73
2022/01/09 09:41:31;;;;;;;17.08;6.65;;;;;;;;;;5115253;27;20417;-73
2022/01/09 09:43:58;;;;;;;11.63;3.13;;;;;;;;;;5115022;27;20034;-73
2022/01/09 09:46:25;;;;;;;9.82;2.65;;;;;;;;;;5114401;27;20026;-74
2022/01/09 09:48:54;;;;;;;12.95;2.90;;;;;;;;;;5125345;27;20040;-73
2022/01/09 09:51:24;;;;;;;9.75;3.97;;;;;;;;;;5109593;28;20081;-74
2022/01/09 09:53:50;;;;;;;14.00;5.68;;;;;;;;;;5125048;27;20034;-74
2022/01/09 09:56:17;;;;;;;12.30;5.05;;;;;;;;;;5114079;27;20019;-73
2022/01/09 09:58:43;;;;;;;12.73;4.82;;;;;;;;;;5113730;27;20041;-73
2022/01/09 10:01:22;;;;;;;9.60;4.05;;;;;;;;;;5113340;27;20035;-73
2022/01/09 10:03:53;;;;;;;9.52;2.85;;;;;;;;;;5112710;27;20026;-73
2022/01/09 10:06:20;;;;;;;;;;;;;;;;;;5110257;28;20020;-74
2022/01/09 10:08:50;;;;;;;12.88;3.60;;;;;;;;;;5116364;27;19910;-73
2022/01/09 10:11:17;;;;;;;13.80;2.70;;;;;;;;;;5113457;27;20026;-73
2022/01/09 10:13:44;;;;;;;11.48;3.20;;;;;;;;;;5113922;27;20027;-73
2022/01/09 10:16:11;;;;;;;14.10;3.60;;;;;;;;;;5094956;28;20404;-73
2022/01/09 10:18:41;;;;;;;23.23;8.25;;;;;;;;;;5110688;28;20515;-74
2022/01/09 10:21:22;;;;;;;15.32;5.68;;;;;;;;;;5094162;28;20026;-73
2022/01/09 10:23:57;;;;;;;20.60;7.20;;;;;;;;;;5116983;28;20036;-73
2022/01/09 10:26:24;;;;;;;14.45;3.85;;;;;;;;;;5114305;28;20039;-73
2022/01/09 10:28:50;;;;;;;14.95;3.50;;;;;;;;;;5113283;28;20065;-74
2022/01/09 10:31:17;;;;;;;14.05;4.03;;;;;;;;;;5112926;28;20032;-74
2022/01/09 10:34:07;;;;;;;25.13;4.93;;;;;;;;;;5093529;28;20032;-73
2022/01/09 10:36:40;;;;;;;15.95;5.00;;;;;;;;;;5099643;27;20026;-74
2022/01/09 10:39:08;;;;;;;26.88;6.13;;;;;;;;;;5117299;27;20036;-74
2022/01/09 10:41:44;;;;;;;15.00;4.97;;;;;;;;;;5118991;27;20027;-74
2022/01/09 10:44:18;;;;;;;18.65;6.28;;;;;;;;;;5116927;27;20020;-73
2022/01/09 10:47:16;;;;;;;18.20;5.82;;;;;;;;;;5102335;27;20060;-74
2022/01/09 10:49:46;;;;;;;20.80;7.68;;;;;;;;;;5102014;27;20498;-73
2022/01/09 10:52:25;;;;;;;20.70;8.07;;;;;;;;;;5117567;27;20017;-73
2022/01/09 10:54:52;;;;;;;28.25;8.55;;;;;;;;;;5116720;27;20030;-74
2022/01/09 10:57:23;;;;;;;23.52;6.28;;;;;;;;;;5113794;27;20008;-73
2022/01/09 10:59:50;;;;;;;24.27;6.00;;;;;;;;;;5101930;28;20042;-73
2022/01/09 11:02:16;;;;;;;17.80;5.95;;;;;;;;;;5118648;27;20030;-74
2022/01/09 11:04:44;;;;;;;17.27;6.65;;;;;;;;;;5116962;27;20016;-73
2022/01/09 11:07:11;;;;;;;29.30;10.35;;;;;;;;;;5117275;27;20019;-73
2022/01/09 11:09:44;;;;;;;26.17;10.02;;;;;;;;;;5096474;27;20038;-74
2022/01/09 11:12:16;;;;;;;24.05;9.52;;;;;;;;;;5115820;27;20016;-73
2022/01/09 11:14:43;;;;;;;32.15;9.95;;;;;;;;;;5118772;27;20035;-74
2022/01/09 11:17:10;;;;;;;22.52;7.85;;;;;;;;;;5116916;27;20026;-73
2022/01/09 11:19:37;;;;;;;16.17;5.90;;;;;;;;;;5116870;27;20042;-73
2022/01/09 11:22:05;;;;;;;19.08;6.50;;;;;;;;;;5116525;27;20011;-74
2022/01/09 11:24:31;;;;;;;19.63;7.15;;;;;;;;;;5113386;27;20089;-74
2022/01/09 11:27:27;;;;;;;21.20;6.57;;;;;;;;;;5118126;27;20020;-73
2022/01/09 11:30:09;;;;;;;17.90;6.03;;;;;;;;;;5114817;27;20027;-73
2022/01/09 11:32:45;;;;;;;22.75;7.28;;;;;;;;;;5118057;27;20036;-73
2022/01/09 11:35:20;;;;;;;24.35;7.40;;;;;;;;;;5098378;28;20018;-73
2022/01/09 11:37:59;;;;;;;26.92;10.25;;;;;;;;;;5116651;27;20492;-74
2022/01/09 11:40:26;;;;;;;25.75;9.82;;;;;;;;;;5117596;27;20042;-73
2022/01/09 11:43:19;;;;;;;24.38;8.55;;;;;;;;;;5115604;27;20027;-73
2022/01/09 11:45:58;;;;;;;28.50;6.63;;;;;;;;;;5098373;27;20039;-73
2022/01/09 11:48:44;;;;;;;26.42;7.55;;;;;;;;;;5095780;28;20040;-74
2022/01/09 11:51:12;;;;;;;22.30;8.32;;;;;;;;;;5111905;28;20027;-74
2022/01/09 11:54:08;;;;;;;26.17;8.82;;;;;;;;;;5113525;28;20393;-73
2022/01/09 11:56:44;;;;;;;26.13;9.35;;;;;;;;;;5095156;28;20405;-73
2022/01/09 11:59:48;;;;;;;18.55;7.43;;;;;;;;;;5111224;28;20038;-73
2022/01/09 12:02:18;;;;;;;17.23;7.88;;;;;;;;;;5011578;28;20037;-73
2022/01/09 12:04:45;;;;;;;24.40;7.63;;;;;;;;;;5011366;28;20048;-73
2022/01/09 12:07:12;;;;;;;25.65;8.40;;;;;;;;;;5011846;28;20033;-73
2022/01/09 12:09:42;;;;;;;24.50;7.90;;;;;;;;;;5011711;28;20061;-73
2022/01/09 12:12:14;;;;;;;22.80;8.93;;;;;;;;;;5011588;28;20040;-74
2022/01/09 12:17:36;;;;;;;34.83;13.43;;;;;;;;;;5011161;28;20054;-73
2022/01/09 12:20:07;;;;;;;30.13;11.98;;;;;;;;;;5011258;28;20069;-73
2022/01/09 12:22:43;;;;;;;31.92;11.30;;;;;;;;;;5008553;28;20045;-74
2022/01/09 12:25:09;;;;;;;26.77;8.68;;;;;;;;;;5011057;28;20048;-73
2022/01/09 12:27:35;;;;;;;32.63;14.68;;;;;;;;;;5011468;28;20087;-73
2022/01/09 12:30:05;;;;;;;24.38;10.65;;;;;;;;;;5011197;28;20540;-73
2022/01/09 12:32:38;;;;;;;20.95;8.23;;;;;;;;;;5011609;28;20026;-73
2022/01/09 12:35:21;;;;;;;22.23;6.53;;;;;;;;;;5015807;28;20022;-73
2022/01/09 12:37:48;;;;;;;20.25;7.13;;;;;;;;;;5110710;28;20371;-74
2022/01/09 12:40:18;;;;;;;17.40;5.28;;;;;;;;;;5109970;28;20040;-73
2022/01/09 12:42:46;;;;;;;12.13;3.58;;;;;;;;;;5110750;28;20020;-73
2022/01/09 12:45:22;;;;;;;7.53;3.17;;;;;;;;;;5112374;28;20363;-73
2022/01/09 12:47:50;;;;;;;7.75;2.28;;;;;;;;;;5126266;27;20043;-73
2022/01/09 12:50:16;;;;;;;8.38;2.50;;;;;;;;;;5115307;27;20478;-73
2022/01/09 12:52:43;;;;;;;6.72;2.92;;;;;;;;;;5114394;27;20053;-73
2022/01/09 12:55:12;;;;;;;8.05;3.05;;;;;;;;;;5114664;27;20050;-74
2022/01/09 12:57:55;;;;;;;10.85;4.65;;;;;;;;;;5112715;27;20401;-73
2022/01/09 13:00:28;;;;;;;6.25;2.70;;;;;;;;;;5110739;28;20043;-73
2022/01/09 13:02:55;;;;;;;7.88;2.90;;;;;;;;;;5126113;27;20088;-74
2022/01/09 13:05:23;;;;;;;8.55;2.75;;;;;;;;;;5116542;27;20498;-73
2022/01/09 13:08:07;;;;;;;7.13;2.38;;;;;;;;;;5114936;27;20020;-73
2022/01/09 13:10:34;;;;;;;8.98;4.07;;;;;;;;;;5114166;27;20038;-73
2022/01/09 13:13:08;;;;;;;3.97;2.00;;;;;;;;;;5114411;27;20047;-73
2022/01/09 13:15:35;;;;;;;6.90;2.63;;;;;;;;;;5111029;27;20020;-73
2022/01/09 13:18:02;;;;;;;7.65;2.58;;;;;;;;;;5115223;27;20026;-73
2022/01/09 13:20:29;;;;;;;9.10;2.80;;;;;;;;;;5115236;27;20039;-73
2022/01/09 13:23:02;;;;;;;8.18;3.13;;;;;;;;;;5114511;27;20023;-73
2022/01/09 13:25:29;;;;;;;8.13;3.17;;;;;;;;;;5095507;28;20033;-73
2022/01/09 13:27:55;;;;;;;8.60;2.65;;;;;;;;;;5113650;27;20011;-73
2022/01/09 13:30:22;;;;;;;12.48;2.30;;;;;;;;;;5110553;28;20031;-73
2022/01/09 13:32:48;;;;;;;12.27;3.38;;;;;;;;;;5117452;27;20072;-73
2022/01/09 13:35:15;;;;;;;9.73;2.47;;;;;;;;;;5113746;27;20015;-73
2022/01/09 13:37:41;;;;;;;8.48;2.63;;;;;;;;;;5115013;27;20027;-74
2022/01/09 13:40:08;;;;;;;10.95;2.63;;;;;;;;;;5113722;27;20031;-74
2022/01/09 13:42:35;;;;;;;11.50;3.40;;;;;;;;;;5110691;27;20015;-73
2022/01/09 13:45:04;;;;;;;12.00;3.45;;;;;;;;;;5114852;27;20032;-73
2022/01/09 13:47:31;;;;;;;9.43;2.47;;;;;;;;;;5116507;27;20058;-73
2022/01/09 13:49:57;;;;;;;11.93;2.47;;;;;;;;;;5108898;28;20064;-73
2022/01/09 13:52:24;;;;;;;9.88;2.45;;;;;;;;;;5108599;28;20092;-74
2022/01/09 13:54:57;;;;;;;10.02;2.92;;;;;;;;;;5109064;28;20385;-73
2022/01/09 13:57:26;;;;;;;21.80;4.22;;;;;;;;;;5093440;28;20020;-73
2022/01/09 13:59:53;;;;;;;12.50;3.40;;;;;;;;;;5108329;28;20031;-73
2022/01/09 14:02:20;;;;;;;13.55;3.97;;;;;;;;;;5093524;28;20085;-73
2022/01/09 14:04:48;;;;;;;15.18;4.57;;;;;;;;;;5109026;28;20375;-74
2022/01/09 14:07:15;;;;;;;11.95;2.88;;;;;;;;;;5108532;28;20034;-73
2022/01/09 14:09:43;;;;;;;10.55;2.55;;;;;;;;;;5109015;28;20027;-74
2022/01/09 14:12:10;;;;;;;11.80;2.90;;;;;;;;;;5110849;28;20031;-73
2022/01/09 14:14:42;;;;;;;9.35;2.65;;;;;;;;;;5110285;28;20024;-74
2022/01/09 14:17:28;;;;;;;8.43;2.60;;;;;;;;;;5110355;28;20019;-73
2022/01/09 14:19:58;;;;;;;11.02;2.83;;;;;;;;;;5108795;28;20030;-73
2022/01/09 14:22:47;;;;;;;7.25;2.25;;;;;;;;;;5108318;28;20474;-73
2022/01/09 14:25:13;;;;;;;7.03;1.92;;;;;;;;;;5108818;28;20030;-73
2022/01/09 14:27:43;;;;;;;6.10;2.10;;;;;;;;;;5109116;28;20020;-74
2022/01/09 14:30:21;;;;;;;8.40;3.53;;;;;;;;;;5110879;28;20031;-73
2022/01/09 14:32:49;;;;;;;7.75;2.63;;;;;;;;;;5111788;28;20024;-73
2022/01/09 14:35:31;;;;;;;7.55;2.38;;;;;;;;;;5108603;28;20545;-74
2022/01/09 14:37:59;;;;;;;7.07;2.70;;;;;;;;;;5108247;28;20030;-73
2022/01/09 14:40:26;;;;;;;8.48;4.43;;;;;;;;;;5108449;28;20028;-74
2022/01/09 14:42:52;;;;;;;8.98;3.83;;;;;;;;;;5108538;28;20020;-73